Owls Head, Maine

6:39 PM EDT on September 30, 2016 (GMT -0400)
GoMOOS | | Change Station

Elev 0 ft 44.06 °N, 69.00 °W | Updated 259 days ago

Partly Cloudy
Partly Cloudy
49 °F
Feels Like 49 °F
N
2
Wind Variable Wind from ENE
Gusts mph

Today
High -- | Low -- °F
--% Chance of Precip.
Yesterday
High -- | Low -- °F
Precip. -- in
Pressure 30.47 in
Visibility 10.0 miles
Clouds Clear
Dew Point 45 °F
Humidity 84%
Rainfall in
Snow Depth Not available.
6:33 AM 6:17 PM
Waning Crescent, 0% visible
METAR KRKD 302156Z AUTO 10005KT 10SM CLR 12/08 A3047 RMK AO2 SLP318 T01220078
Pressure 30.47 in
Visibility 10.0 miles
Clouds Clear
Dew Point 45 °F
Humidity 84%
Rainfall in
Snow Depth Not available.
6:33 AM 6:17 PM
Waning Crescent, 0% visible
METAR KRKD 302156Z AUTO 10005KT 10SM CLR 12/08 A3047 RMK AO2 SLP318 T01220078

10-Day Weather Forecast

Almanac

Astronomy

Sep. 30, 2016 Rise Set
Actual Time
Civil Twilight
Nautical Twilight
Astronomical Twilight
Moon
Length of Visible Light
Length of Day
Tomorrow will be .
, % of the Moon is Illuminated

Today's Extremes

State Highs State Lows

Community

WunderPhotos

Upload Photos

1,942,806 photos uploaded!

WunderBlog® & News

Nearby

Air Quality

  Air Quality AQ Index Pollutant
Not available.

Snow Depth

Station Depth Elevation

Earthquake Activity

City Distance Mag. Time & Date
Minimum magnitude displayed is 2.5.

Coastal Water Temperatures

Place Temperature

Stations

Nearby Weather Stations

Station Location Temp. Windchill Dew Point Humidity Wind Precip. Elev Updated Type
                   

Watches & Warnings

There are currently no watches in effect.